createdAt,value
2018-08-16T18:54:54.984Z,31.70
2018-08-16T18:57:24.206Z,31.00
2018-08-16T18:59:53.434Z,30.90
2018-08-16T19:02:22.910Z,30.80
2018-08-16T19:04:52.334Z,30.70
2018-08-16T19:07:22.462Z,30.60
2018-08-16T19:09:51.743Z,30.40
2018-08-16T19:12:21.124Z,30.30
2018-08-16T19:14:50.367Z,30.20
2018-08-16T19:17:19.617Z,30.10
2018-08-16T19:19:49.194Z,30.00
2018-08-16T19:22:18.360Z,29.90
2018-08-16T19:25:13.861Z,29.90
2018-08-16T19:27:43.103Z,29.70
2018-08-16T19:30:12.298Z,29.60
2018-08-16T19:32:41.569Z,29.50
2018-08-16T19:35:10.832Z,29.40
2018-08-16T19:37:40.082Z,29.30
2018-08-16T19:40:09.398Z,29.20
2018-08-16T19:42:38.792Z,29.10
2018-08-16T19:45:08.110Z,29.00
2018-08-16T19:47:37.316Z,29.00
2018-08-16T19:50:16.737Z,28.90
2018-08-16T19:53:15.057Z,28.80
2018-08-16T19:58:44.142Z,28.50
2018-08-16T20:01:13.457Z,28.40
2018-08-16T20:03:42.675Z,28.40
2018-08-16T20:06:11.876Z,28.30
2018-08-16T20:08:41.073Z,28.20
2018-08-16T20:11:10.323Z,28.10
2018-08-16T20:13:39.530Z,28.10
2018-08-16T20:16:08.815Z,28.00
2018-08-16T20:18:38.582Z,27.90
2018-08-16T20:21:17.729Z,27.80
2018-08-16T20:23:46.931Z,27.70
2018-08-16T20:26:16.233Z,27.60
2018-08-16T20:28:45.498Z,27.30
2018-08-16T20:31:14.719Z,27.30
2018-08-16T20:33:44.130Z,27.10
2018-08-16T20:36:13.366Z,27.20
2018-08-16T20:38:42.558Z,27.20
2018-08-16T20:41:11.815Z,27.00
2018-08-16T20:43:41.504Z,27.00
2018-08-16T20:46:10.717Z,26.90
2018-08-16T20:48:40.126Z,26.80
2018-08-16T20:51:09.409Z,26.80
2018-08-16T20:53:38.600Z,26.70
2018-08-16T20:56:08.057Z,26.70
2018-08-16T20:58:37.305Z,26.50
2018-08-16T21:01:07.105Z,26.50
2018-08-16T21:03:36.912Z,26.40
2018-08-16T21:06:07.789Z,26.30
2018-08-16T21:08:36.964Z,26.00
2018-08-16T21:11:06.418Z,26.00
2018-08-16T21:13:35.674Z,26.00
2018-08-16T21:16:05.301Z,25.90
2018-08-16T21:18:34.517Z,25.80
2018-08-16T21:21:03.877Z,25.70
2018-08-16T21:23:33.100Z,25.70
2018-08-16T21:26:02.315Z,25.70
2018-08-16T21:28:31.499Z,25.60
2018-08-16T21:31:17.213Z,25.60
2018-08-16T21:33:46.462Z,25.60
2018-08-16T21:36:15.693Z,25.40
2018-08-16T21:38:44.902Z,25.30
2018-08-16T21:41:14.118Z,25.30
2018-08-16T21:43:43.297Z,25.20
2018-08-16T21:46:12.623Z,25.10
2018-08-16T21:48:41.922Z,25.10
2018-08-16T21:51:11.101Z,25.00
2018-08-16T21:53:40.335Z,24.90
2018-08-16T21:56:09.527Z,24.90
2018-08-16T22:01:38.841Z,24.80
2018-08-16T22:05:37.135Z,24.70
2018-08-16T22:11:26.226Z,24.60
2018-08-16T22:14:14.639Z,24.50
2018-08-16T22:16:43.837Z,24.40
2018-08-16T22:19:16.922Z,24.40
2018-08-16T22:21:46.121Z,24.30
2018-08-16T22:24:15.930Z,24.20
2018-08-16T22:27:14.641Z,24.30
2018-08-16T22:29:44.070Z,24.30
2018-08-16T22:32:13.331Z,24.30
2018-08-16T22:34:42.557Z,24.20
2018-08-16T22:37:11.965Z,24.20
2018-08-16T22:39:41.158Z,24.20
2018-08-16T22:42:10.346Z,24.20
2018-08-16T22:47:40.254Z,24.10
2018-08-16T22:50:09.668Z,24.10
2018-08-16T22:52:39.203Z,24.10
2018-08-16T22:55:16.204Z,24.10
2018-08-16T22:57:45.481Z,24.00
2018-08-16T23:00:14.694Z,24.00
2018-08-16T23:02:43.922Z,23.90
2018-08-16T23:05:13.097Z,23.90
2018-08-16T23:07:42.430Z,23.90
2018-08-16T23:10:11.661Z,23.90
2018-08-16T23:12:40.873Z,23.90
2018-08-16T23:15:16.437Z,23.80
2018-08-16T23:18:14.437Z,23.80
2018-08-16T23:45:14.017Z,23.40
